createdAt,value
2022-11-16T00:02:13.586Z,61.44
2022-11-16T00:04:41.601Z,61.20
2022-11-16T00:07:09.570Z,61.36
2022-11-16T00:09:37.663Z,61.24
2022-11-16T00:12:08.757Z,61.22
2022-11-16T00:14:36.676Z,61.21
2022-11-16T00:17:04.768Z,61.17
2022-11-16T00:19:32.382Z,61.52
2022-11-16T00:22:00.082Z,61.03
2022-11-16T00:24:27.446Z,61.07
2022-11-16T00:26:56.095Z,61.06
2022-11-16T00:29:26.444Z,61.06
2022-11-16T00:31:54.858Z,61.17
2022-11-16T00:34:24.428Z,61.08
2022-11-16T00:36:52.571Z,61.18
2022-11-16T00:39:20.827Z,61.14
2022-11-16T00:41:50.050Z,61.02
2022-11-16T00:44:18.810Z,61.28
2022-11-16T00:46:46.187Z,61.04
2022-11-16T00:49:13.588Z,61.09
2022-11-16T00:51:41.224Z,61.06
2022-11-16T00:54:09.921Z,61.05
2022-11-16T00:56:39.466Z,60.95
2022-11-16T00:59:07.735Z,60.95
2022-11-16T01:01:35.419Z,60.85
2022-11-16T01:04:03.122Z,60.89
2022-11-16T01:06:30.530Z,60.78
2022-11-16T01:08:58.094Z,60.76
2022-11-16T01:11:44.175Z,60.60
2022-11-16T01:14:12.008Z,60.70
2022-11-16T01:16:39.405Z,60.65
2022-11-16T01:19:07.792Z,60.60
2022-11-16T01:21:35.479Z,60.60
2022-11-16T01:24:04.093Z,60.72
2022-11-16T01:26:31.514Z,60.66
2022-11-16T01:28:59.778Z,60.55
2022-11-16T01:31:31.090Z,60.80
2022-11-16T01:33:59.911Z,60.78
2022-11-16T01:36:29.768Z,60.68
2022-11-16T01:38:59.609Z,60.68
2022-11-16T01:41:30.918Z,60.67
2022-11-16T01:44:06.895Z,60.58
2022-11-16T01:46:49.036Z,60.97
2022-11-16T01:49:23.912Z,60.64
2022-11-16T01:52:02.957Z,60.56
2022-11-16T01:54:41.646Z,60.65
2022-11-16T01:57:16.114Z,60.61
2022-11-16T01:59:57.714Z,60.60
2022-11-16T02:02:28.267Z,60.63
2022-11-16T02:04:58.236Z,60.54
2022-11-16T02:08:23.345Z,60.51
2022-11-16T02:10:54.242Z,60.47
2022-11-16T02:14:16.589Z,60.45
2022-11-16T02:17:10.916Z,60.61
2022-11-16T02:20:00.429Z,60.47
2022-11-16T02:23:21.221Z,60.38
2022-11-16T02:26:24.817Z,60.51
2022-11-16T02:29:20.775Z,60.48
2022-11-16T02:32:09.001Z,60.43
2022-11-16T02:34:52.953Z,60.58
2022-11-16T02:37:26.277Z,60.53
2022-11-16T02:39:59.665Z,60.36
2022-11-16T02:42:38.892Z,60.44
2022-11-16T02:45:12.224Z,60.46
2022-11-16T02:47:44.654Z,60.43
2022-11-16T02:50:19.588Z,60.44
2022-11-16T02:52:47.402Z,60.50
2022-11-16T02:55:15.178Z,60.35
2022-11-16T02:57:51.217Z,60.36
2022-11-16T03:00:51.972Z,60.36
2022-11-16T03:03:37.791Z,60.43
2022-11-16T03:06:19.152Z,60.50
2022-11-16T03:09:21.320Z,60.12
2022-11-16T03:12:00.827Z,60.17
2022-11-16T03:14:47.682Z,60.23
2022-11-16T03:17:29.773Z,60.21
2022-11-16T03:20:27.128Z,60.23
2022-11-16T03:23:01.638Z,60.23
2022-11-16T03:25:37.067Z,60.25
2022-11-16T03:28:38.390Z,60.26
2022-11-16T03:31:21.796Z,60.15
2022-11-16T03:33:57.702Z,60.37
2022-11-16T03:36:33.783Z,60.40
2022-11-16T03:39:37.675Z,60.32
2022-11-16T03:42:14.390Z,60.28
2022-11-16T03:44:47.978Z,60.30
2022-11-16T03:47:15.636Z,60.37
2022-11-16T03:49:47.670Z,60.26
2022-11-16T03:52:19.012Z,60.38
2022-11-16T03:54:48.292Z,60.42
2022-11-16T03:57:18.656Z,60.40
2022-11-16T03:59:52.849Z,60.47
2022-11-16T04:02:20.309Z,60.27
2022-11-16T04:05:08.457Z,60.24
2022-11-16T04:07:54.452Z,60.27
2022-11-16T04:10:41.755Z,60.25
2022-11-16T04:13:31.717Z,60.24
2022-11-16T04:16:18.835Z,60.22
2022-11-16T04:19:05.470Z,60.22
2022-11-16T04:22:01.033Z,60.24
2022-11-16T04:24:39.317Z,60.30
2022-11-16T04:27:31.818Z,60.13
2022-11-16T04:30:02.511Z,60.27
2022-11-16T04:32:52.570Z,60.13
2022-11-16T04:35:38.758Z,60.19
2022-11-16T04:38:08.550Z,60.13
2022-11-16T04:40:37.153Z,60.20
2022-11-16T04:43:06.010Z,60.07
2022-11-16T04:45:55.268Z,60.18
2022-11-16T04:48:26.801Z,60.26
2022-11-16T04:50:55.376Z,60.43
2022-11-16T04:53:27.920Z,60.29
2022-11-16T04:56:15.234Z,60.23
2022-11-16T04:58:43.194Z,59.79
2022-11-16T05:01:11.121Z,60.15
2022-11-16T05:03:38.714Z,60.16
2022-11-16T05:06:06.920Z,60.05
2022-11-16T05:08:35.227Z,59.93
2022-11-16T05:11:04.754Z,59.89
2022-11-16T05:13:33.013Z,59.89
2022-11-16T05:16:01.805Z,59.75
2022-11-16T05:18:29.208Z,59.57
2022-11-16T05:21:02.703Z,59.62
2022-11-16T05:23:56.012Z,59.77
2022-11-16T05:26:26.205Z,59.82
2022-11-16T05:28:54.975Z,59.89
2022-11-16T05:31:22.382Z,60.04
2022-11-16T05:33:50.002Z,59.42
2022-11-16T05:36:18.834Z,59.65
2022-11-16T05:38:46.259Z,60.08
2022-11-16T05:41:14.760Z,59.65
2022-11-16T05:43:43.651Z,59.64
2022-11-16T05:46:18.714Z,59.56
2022-11-16T05:48:46.722Z,59.76
2022-11-16T05:51:14.276Z,59.64
2022-11-16T05:53:42.581Z,59.67
2022-11-16T05:56:15.051Z,59.66
2022-11-16T05:58:44.494Z,59.52
2022-11-16T06:01:12.260Z,59.76
2022-11-16T06:03:39.834Z,59.71
2022-11-16T06:06:07.299Z,59.58
2022-11-16T06:08:36.873Z,59.53
2022-11-16T06:11:10.175Z,59.50
2022-11-16T06:13:38.568Z,59.46
2022-11-16T06:16:07.591Z,59.47
2022-11-16T06:18:42.662Z,59.24
2022-11-16T06:21:12.549Z,59.48
2022-11-16T06:23:41.393Z,59.33
2022-11-16T06:26:09.880Z,59.31
2022-11-16T06:28:38.307Z,59.24
2022-11-16T06:31:06.259Z,59.31
2022-11-16T06:33:38.030Z,59.24
2022-11-16T06:36:10.127Z,59.12
2022-11-16T18:28:11.224Z,52.72
2022-11-16T18:30:38.881Z,54.49
2022-11-16T18:33:08.421Z,56.81
2022-11-16T18:35:35.766Z,58.14
2022-11-16T18:38:03.718Z,60.01
2022-11-16T18:40:31.232Z,61.60
2022-11-16T18:42:58.660Z,62.80
2022-11-16T18:45:26.090Z,63.94
2022-11-16T18:47:53.518Z,64.74
2022-11-16T18:50:26.540Z,67.79
2022-11-16T18:52:54.333Z,67.81
2022-11-16T18:55:22.946Z,68.32
2022-11-16T18:57:50.307Z,69.43
2022-11-16T19:00:20.250Z,69.36
2022-11-16T19:02:47.635Z,70.60
2022-11-16T19:05:15.038Z,70.74
2022-11-16T19:07:42.430Z,71.29
2022-11-16T19:10:10.065Z,71.57
2022-11-16T19:12:37.593Z,72.70
2022-11-16T19:15:05.671Z,72.96
2022-11-16T19:17:33.057Z,73.18
2022-11-16T19:20:00.431Z,73.75
2022-11-16T19:22:27.840Z,74.14
2022-11-16T19:24:55.229Z,74.78
2022-11-16T19:27:22.583Z,75.79
2022-11-16T19:29:49.942Z,75.66
2022-11-16T19:32:17.320Z,76.00
2022-11-16T19:34:44.705Z,76.44
2022-11-16T19:37:12.106Z,76.52
2022-11-16T19:39:39.586Z,77.79
2022-11-16T19:42:07.016Z,77.84
2022-11-16T19:44:34.447Z,78.04
2022-11-16T19:47:01.996Z,78.69
2022-11-16T19:49:29.561Z,80.12
2022-11-16T19:51:56.921Z,79.81
2022-11-16T19:54:24.345Z,79.16
2022-11-16T19:56:55.066Z,79.92
2022-11-16T19:59:22.950Z,80.04
2022-11-16T20:01:50.351Z,81.12
2022-11-16T20:04:17.694Z,81.96
2022-11-16T20:06:45.171Z,81.48
2022-11-16T20:09:12.977Z,82.04
2022-11-16T20:11:41.729Z,81.46
2022-11-16T20:14:11.831Z,81.59
2022-11-16T20:16:42.430Z,82.03
2022-11-16T20:19:10.734Z,82.15
2022-11-16T20:21:41.682Z,82.74
2022-11-16T20:24:16.074Z,82.39
2022-11-16T20:26:47.821Z,82.97
2022-11-16T20:29:16.936Z,82.74
2022-11-16T20:31:46.082Z,83.97
2022-11-16T20:34:16.790Z,83.80
2022-11-16T20:36:46.973Z,83.38
2022-11-16T20:39:17.328Z,84.16
2022-11-16T20:41:45.755Z,84.00
2022-11-16T20:44:22.163Z,84.40
2022-11-16T20:46:52.407Z,83.96
2022-11-16T20:49:20.301Z,84.31
2022-11-16T20:51:48.302Z,84.75
2022-11-16T20:54:15.762Z,85.04
2022-11-16T20:56:44.423Z,86.08
2022-11-16T20:59:11.837Z,85.57
2022-11-16T21:01:41.330Z,86.67
2022-11-16T21:04:10.759Z,86.12
2022-11-16T21:06:38.128Z,86.41
2022-11-16T21:09:06.087Z,86.97
2022-11-16T21:11:53.927Z,86.73
2022-11-16T21:14:22.599Z,86.73
2022-11-16T21:16:50.253Z,86.72
2022-11-16T21:19:17.673Z,87.29
2022-11-16T21:21:45.129Z,87.71
2022-11-16T21:24:12.565Z,87.68
2022-11-16T21:26:40.060Z,87.79
2022-11-16T21:29:08.501Z,87.75
2022-11-16T21:31:36.808Z,88.12
2022-11-16T21:34:05.751Z,87.86
2022-11-16T21:36:33.686Z,88.53
2022-11-16T21:39:01.133Z,89.63
2022-11-16T21:41:28.648Z,88.83
2022-11-16T21:43:56.074Z,89.18
2022-11-16T21:46:26.493Z,89.29
2022-11-16T21:48:56.463Z,88.95
2022-11-16T21:51:26.814Z,89.78
2022-11-16T21:53:54.828Z,90.02
2022-11-16T21:56:25.257Z,89.75
2022-11-16T21:58:54.035Z,89.82
2022-11-16T22:01:23.342Z,90.23
2022-11-16T22:04:10.839Z,89.90
2022-11-16T22:06:56.976Z,90.14
2022-11-16T22:09:24.412Z,90.97
2022-11-16T22:11:51.777Z,91.03
2022-11-16T22:14:19.157Z,91.29
2022-11-16T22:16:46.525Z,91.81
2022-11-16T22:19:13.973Z,92.14
2022-11-16T22:21:41.337Z,92.12
2022-11-16T22:24:08.741Z,93.59
2022-11-16T22:26:37.890Z,93.38
2022-11-16T22:29:05.298Z,92.99
2022-11-16T22:31:32.987Z,93.80
2022-11-16T22:34:00.336Z,93.96
2022-11-16T22:36:27.796Z,93.71
2022-11-16T22:38:56.989Z,94.03
2022-11-16T22:41:24.413Z,94.51
2022-11-16T22:43:51.840Z,94.69
2022-11-16T22:46:19.217Z,94.92
2022-11-16T22:48:47.834Z,95.42
2022-11-16T22:51:23.563Z,95.71
2022-11-16T22:54:03.400Z,96.24
2022-11-16T22:56:33.464Z,95.90
2022-11-16T22:59:02.378Z,96.20
2022-11-16T23:01:29.835Z,97.04
2022-11-16T23:03:58.688Z,97.30
2022-11-16T23:06:26.227Z,96.98
2022-11-16T23:08:54.291Z,98.08
2022-11-16T23:11:43.793Z,98.00
2022-11-16T23:14:40.673Z,98.84
2022-11-16T23:17:08.099Z,98.96
2022-11-16T23:19:54.293Z,99.16
2022-11-16T23:22:40.509Z,100.00
2022-11-16T23:25:30.302Z,100.00
2022-11-16T23:28:14.964Z,100.00
2022-11-16T23:30:42.749Z,100.00
2022-11-16T23:33:10.902Z,100.00
2022-11-16T23:35:38.402Z,100.00
2022-11-16T23:38:07.549Z,100.00
2022-11-16T23:40:38.759Z,100.00
2022-11-16T23:43:28.947Z,100.00
2022-11-16T23:45:56.384Z,100.00
2022-11-16T23:48:23.924Z,100.00
2022-11-16T23:50:51.343Z,100.00
2022-11-16T23:53:18.719Z,100.00
2022-11-16T23:55:47.510Z,100.00
2022-11-16T23:58:15.423Z,100.00
